Pagrindinis puslapis
METAR-TAF:

METAR-TAF

Oro uostai :

Nadis, Fidžis

platuma: 17-45S, ilguma: 177-27E, Aukštis: 13 m

Dabartinis oras

Ataskaita buvo paskelbta 17 minutes, ne 03:00 UTC
Vėjas 9 kt iš Šiaurės Vakarų
Temperatūra 29°C
Drėgmė 58%
Slėgis 1014 hPa
Matomumas 10 km arba daugiau
Išsisklaidę debesys ne aukštis 2800 ft
Su prošvaistėmis ne aukštis 4800 ft

METAR: NFFN 170300Z 31009KT 9999 SCT028 BKN048 29/20 Q1014 NOSIG

Laikas: 15:17 (03:17 UTC)

Prognozė

Ataskaita buvo paskelbta 4 valandos ir 6 minutes, ne 23:11 UTC
Prognozė galioja nuo 17 metu 00 UTC su 17 metu 24 UTC
Vėjas 10 kt iš Rytų
Matomumas 10 km arba daugiau
Mažai debesys ne aukštis 2800 ft
Tapsmas
nuo 17 metu 22 UTC su 17 metu 24 UTC
Vėjas 8 kt iš Vakarų/Šiaurės Vakarų

TAF: NFFN 162311Z 1700/1724 10010KT 9999 FEW028 BECMG 1722/1724 29008KT

Orai ataskaitas ir orų prognozės (METAR, TAF).

turimą stotys yra geltonos ir raudonos taškus žemėlapyje.

Perkelti pele per norėdami pamatyti stoties vardą.

Tada spustelėkite, norėdami matyti oro stebėjimo ir prognozės.

Norėdami pakeisti žemėlapį: spustelėkite ant žalios mygtukų su juodo kryžiaus žemyn,; žalią mygtuką su brūkšneliu, jei norite nutolinti; arba žalių rodyklių gretimoms žemėlapius.


METAR-TAF: